createdAt,value
2018-10-12T00:00:08.589Z,14.80
2018-10-12T00:02:36.139Z,14.90
2018-10-12T00:05:03.647Z,15.00
2018-10-12T00:07:31.029Z,15.00
2018-10-12T00:09:58.408Z,15.00
2018-10-12T00:12:25.800Z,15.00
2018-10-12T00:14:53.217Z,15.00
2018-10-12T00:17:20.565Z,15.00
2018-10-12T00:19:47.950Z,15.00
2018-10-12T00:22:15.437Z,14.90
2018-10-12T00:24:42.833Z,14.90
2018-10-12T00:27:10.202Z,14.90
2018-10-12T00:29:37.600Z,14.90
2018-10-12T00:32:05.103Z,15.00
2018-10-12T00:34:32.562Z,14.90
2018-10-12T00:36:59.951Z,14.90
2018-10-12T00:39:27.294Z,15.00
2018-10-12T00:41:54.649Z,15.00
2018-10-12T00:44:22.037Z,15.00
2018-10-12T00:46:49.409Z,15.00
2018-10-12T00:49:16.840Z,15.10
2018-10-12T00:51:44.207Z,15.10
2018-10-12T00:54:11.681Z,15.10
2018-10-12T00:56:39.128Z,15.00
2018-10-12T00:59:06.557Z,15.00
2018-10-12T01:01:33.999Z,15.10
2018-10-12T01:04:01.354Z,15.10
2018-10-12T01:06:28.864Z,15.20
2018-10-12T01:08:56.269Z,15.10
2018-10-12T01:11:23.607Z,15.10
2018-10-12T01:13:51.001Z,15.00
2018-10-12T01:16:18.497Z,15.10
2018-10-12T01:18:45.977Z,15.10
2018-10-12T01:21:13.451Z,15.20
2018-10-12T01:23:41.030Z,15.20
2018-10-12T01:26:08.702Z,15.10
2018-10-12T01:28:36.229Z,15.00
2018-10-12T01:31:03.638Z,14.90
2018-10-12T01:33:31.028Z,14.90
2018-10-12T01:35:58.530Z,14.90
2018-10-12T01:38:26.060Z,14.80
2018-10-12T01:40:53.488Z,14.90
2018-10-12T01:43:20.890Z,14.90
2018-10-12T01:45:48.230Z,15.00
2018-10-12T01:48:15.706Z,15.00
2018-10-12T01:50:43.226Z,15.00
2018-10-12T01:53:10.766Z,15.10
2018-10-12T01:55:38.190Z,15.10
2018-10-12T01:58:05.774Z,15.10
2018-10-12T02:00:33.205Z,15.00
2018-10-12T02:03:00.710Z,15.10
2018-10-12T02:05:28.178Z,15.10
2018-10-12T02:07:55.630Z,15.10
2018-10-12T02:10:23.034Z,15.20
2018-10-12T02:12:50.489Z,15.20
2018-10-12T02:15:17.980Z,15.30
2018-10-12T02:17:45.346Z,15.30
2018-10-12T02:20:13.061Z,15.30
2018-10-12T02:22:40.998Z,15.30
2018-10-12T02:25:09.142Z,15.30
2018-10-12T02:27:36.536Z,15.40
2018-10-12T02:30:04.512Z,15.30
2018-10-12T02:32:31.929Z,15.40
2018-10-12T02:34:59.333Z,15.40
2018-10-12T02:37:26.698Z,15.50
2018-10-12T02:39:54.040Z,15.50
2018-10-12T02:42:21.396Z,15.40
2018-10-12T02:44:48.800Z,15.50
2018-10-12T02:47:16.246Z,15.40
2018-10-12T02:49:43.656Z,15.50
2018-10-12T02:52:11.018Z,15.40
2018-10-12T02:54:38.481Z,15.40
2018-10-12T02:57:06.112Z,15.50
2018-10-12T02:59:33.454Z,15.50
2018-10-12T03:02:00.866Z,15.50
2018-10-12T03:04:28.272Z,15.50
2018-10-12T03:06:55.632Z,15.50
2018-10-12T03:09:23.073Z,15.50
2018-10-12T03:11:50.447Z,15.50
2018-10-12T03:14:17.847Z,15.40
2018-10-12T03:16:45.341Z,15.40
2018-10-12T03:19:12.787Z,15.30
2018-10-12T03:21:40.147Z,15.10
2018-10-12T03:24:07.543Z,14.90
2018-10-12T03:26:35.008Z,14.60
2018-10-12T03:29:02.511Z,14.40
2018-10-12T03:31:29.894Z,14.30
2018-10-12T03:33:57.277Z,14.30
2018-10-12T03:36:24.760Z,14.30
2018-10-12T03:38:52.201Z,14.30
2018-10-12T03:41:19.627Z,14.30
2018-10-12T03:43:46.980Z,14.40
2018-10-12T03:46:14.318Z,14.40
2018-10-12T03:48:41.888Z,14.40
2018-10-12T03:51:09.189Z,14.40
2018-10-12T03:53:36.741Z,14.40
2018-10-12T03:56:04.215Z,14.40
2018-10-12T03:58:31.669Z,14.30
2018-10-12T04:00:59.015Z,14.30
2018-10-12T04:03:26.329Z,14.20
2018-10-12T04:05:53.734Z,14.20
2018-10-12T04:08:21.139Z,14.10
2018-10-12T04:10:48.503Z,14.00
2018-10-12T04:13:15.898Z,14.00
2018-10-12T04:15:43.440Z,14.00
2018-10-12T04:18:12.887Z,13.90
2018-10-12T04:20:40.558Z,14.00
2018-10-12T04:23:33.079Z,13.90
2018-10-12T04:26:00.579Z,13.90
2018-10-12T04:28:28.855Z,13.80
2018-10-12T04:30:56.213Z,13.60
2018-10-12T04:33:23.631Z,13.50
2018-10-12T04:35:51.036Z,13.50
2018-10-12T04:38:18.414Z,13.50
2018-10-12T04:40:58.512Z,13.50
2018-10-12T04:43:26.046Z,13.40
2018-10-12T04:45:53.535Z,13.40
2018-10-12T04:48:21.038Z,13.40
2018-10-12T04:50:48.887Z,13.40
2018-10-12T04:53:16.490Z,13.40
2018-10-12T04:55:44.018Z,13.30
2018-10-12T04:58:11.410Z,13.30
2018-10-12T05:00:39.020Z,13.30
2018-10-12T05:03:06.527Z,13.30
2018-10-12T05:05:33.896Z,13.00
2018-10-12T05:08:01.327Z,12.80
2018-10-12T05:10:28.710Z,12.80
2018-10-12T05:12:56.181Z,12.90
2018-10-12T05:15:23.781Z,13.00
2018-10-12T05:17:51.241Z,13.00
2018-10-12T05:20:18.651Z,13.00
2018-10-12T05:22:46.156Z,13.10
2018-10-12T05:25:13.574Z,13.10
2018-10-12T05:27:40.995Z,13.10
2018-10-12T05:30:08.497Z,13.10
2018-10-12T05:32:35.917Z,13.00
2018-10-12T05:35:03.402Z,13.00
2018-10-12T05:37:31.495Z,13.00
2018-10-12T05:39:58.944Z,13.10
2018-10-12T05:42:26.383Z,13.10
2018-10-12T05:44:53.856Z,13.00
2018-10-12T05:47:21.285Z,12.90
2018-10-12T05:49:59.658Z,12.90
2018-10-12T05:52:27.448Z,12.90
2018-10-12T05:54:55.069Z,12.90
2018-10-12T05:57:22.662Z,13.00
2018-10-12T05:59:50.023Z,13.00
2018-10-12T06:02:17.395Z,13.00
2018-10-12T06:04:45.067Z,12.90
2018-10-12T06:07:12.475Z,13.00
2018-10-12T06:09:39.913Z,13.00
2018-10-12T06:12:07.373Z,13.00
2018-10-12T06:14:34.969Z,13.10
2018-10-12T06:17:02.356Z,13.20
2018-10-12T06:19:29.704Z,13.20
2018-10-12T06:21:57.076Z,13.20
2018-10-12T06:24:24.391Z,13.30
2018-10-12T06:26:52.013Z,13.30
2018-10-12T06:29:19.359Z,13.40
2018-10-12T06:31:46.738Z,13.50
2018-10-12T06:34:14.067Z,13.60
2018-10-12T06:36:41.513Z,13.80
2018-10-12T06:39:09.236Z,13.90
2018-10-12T06:41:37.782Z,13.90
2018-10-12T06:44:05.091Z,13.90
2018-10-12T06:46:32.545Z,14.10
2018-10-12T06:48:59.936Z,14.20
2018-10-12T06:51:27.243Z,14.40
2018-10-12T06:53:54.624Z,14.50
2018-10-12T06:56:22.032Z,14.60
2018-10-12T06:58:49.462Z,14.70
2018-10-12T07:01:16.856Z,14.80
2018-10-12T07:03:44.316Z,14.90
2018-10-12T07:06:11.830Z,15.20
2018-10-12T07:08:39.344Z,15.40
2018-10-12T07:11:07.345Z,15.50
2018-10-12T07:13:34.947Z,15.60
2018-10-12T07:16:02.368Z,15.80
2018-10-12T07:18:29.752Z,15.90
2018-10-12T07:20:57.099Z,15.90
2018-10-12T07:23:24.518Z,16.00
2018-10-12T07:25:52.048Z,16.10
2018-10-12T07:28:19.502Z,16.20
2018-10-12T07:30:46.962Z,16.20
2018-10-12T07:33:14.328Z,16.20
2018-10-12T07:35:41.704Z,16.40
2018-10-12T07:38:09.134Z,16.50
2018-10-12T07:40:36.522Z,16.60
2018-10-12T07:43:03.940Z,16.70
2018-10-12T07:45:31.611Z,16.80
2018-10-12T07:47:58.709Z,16.90
2018-10-12T07:50:26.210Z,17.00
2018-10-12T07:52:53.697Z,17.30
2018-10-12T07:55:21.198Z,17.90
2018-10-12T07:57:49.982Z,18.10
2018-10-12T08:00:19.720Z,18.20
2018-10-12T08:02:47.286Z,17.90
2018-10-12T08:05:14.750Z,17.80
2018-10-12T08:07:42.148Z,17.90
2018-10-12T08:10:09.610Z,18.00
2018-10-12T08:12:37.109Z,17.80
2018-10-12T08:15:04.599Z,17.80
2018-10-12T08:17:32.072Z,17.80
2018-10-12T08:19:59.614Z,17.90
2018-10-12T08:22:27.032Z,18.10
2018-10-12T08:24:54.478Z,18.20
2018-10-12T08:27:21.912Z,18.40
2018-10-12T08:29:49.422Z,18.60
2018-10-12T08:32:17.010Z,18.80
2018-10-12T08:34:44.425Z,19.10
2018-10-12T08:37:11.789Z,19.20
2018-10-12T08:39:39.114Z,19.50
2018-10-12T08:42:06.790Z,19.70
2018-10-12T08:44:34.237Z,19.90
2018-10-12T08:47:01.701Z,20.10
2018-10-12T08:49:29.165Z,20.10
2018-10-12T08:51:56.660Z,20.20
2018-10-12T08:54:24.429Z,20.20
2018-10-12T08:56:51.886Z,20.00
2018-10-12T08:59:19.306Z,20.00
2018-10-12T09:01:46.680Z,20.20
2018-10-12T09:04:14.050Z,20.30
2018-10-12T09:06:41.631Z,20.20
2018-10-12T09:09:09.985Z,20.30
2018-10-12T09:11:38.441Z,20.40
2018-10-12T09:14:06.038Z,20.60
2018-10-12T09:16:33.435Z,20.90
2018-10-12T09:19:00.823Z,21.00
2018-10-12T09:21:28.349Z,21.30
2018-10-12T09:23:57.587Z,21.50
2018-10-12T09:26:25.355Z,21.70
2018-10-12T09:28:53.135Z,22.00
2018-10-12T09:31:21.005Z,22.00
2018-10-12T09:33:48.547Z,21.90
2018-10-12T09:36:15.975Z,22.20
2018-10-12T09:38:43.398Z,22.60
2018-10-12T09:41:10.869Z,22.90
2018-10-12T09:43:38.325Z,23.10
2018-10-12T09:46:06.331Z,23.30
2018-10-12T09:48:33.774Z,23.40
2018-10-12T09:51:01.313Z,23.50
2018-10-12T09:53:28.667Z,23.70
2018-10-12T09:55:56.380Z,23.70
2018-10-12T09:58:23.807Z,23.60
2018-10-12T10:00:56.743Z,24.00
2018-10-12T10:03:29.969Z,24.30
2018-10-12T10:05:57.376Z,24.50
2018-10-12T10:08:24.888Z,24.50
2018-10-12T10:10:52.159Z,24.50
2018-10-12T10:13:19.577Z,24.80
2018-10-12T10:15:47.046Z,24.70
2018-10-12T10:18:14.430Z,24.40
2018-10-12T10:20:41.892Z,24.60
2018-10-12T10:23:09.358Z,24.80
2018-10-12T10:25:36.806Z,25.00
2018-10-12T10:28:04.347Z,25.30
2018-10-12T10:30:31.799Z,25.50
2018-10-12T10:32:59.229Z,25.10
2018-10-12T10:35:27.622Z,24.90
2018-10-12T10:37:55.110Z,24.80
2018-10-12T10:40:22.522Z,24.70
2018-10-12T10:42:49.932Z,24.80
2018-10-12T10:45:17.506Z,24.60
2018-10-12T10:47:45.030Z,24.60
2018-10-12T10:50:12.488Z,25.00
2018-10-12T10:52:40.034Z,25.30
2018-10-12T10:55:07.436Z,25.30
2018-10-12T10:57:34.796Z,24.60
2018-10-12T11:00:02.213Z,24.40
2018-10-12T11:02:29.582Z,24.60
2018-10-12T11:04:57.070Z,24.40
2018-10-12T11:07:24.439Z,24.90
2018-10-12T11:09:51.802Z,25.30
2018-10-12T11:12:19.332Z,25.60
2018-10-12T11:14:46.644Z,25.80
2018-10-12T11:17:14.070Z,26.00
2018-10-12T11:19:41.570Z,25.30
2018-10-12T11:22:09.029Z,25.60
2018-10-12T11:24:36.475Z,25.50
2018-10-12T11:27:03.926Z,25.50
2018-10-12T11:29:31.378Z,25.90
2018-10-12T11:31:58.811Z,26.20
2018-10-12T11:34:26.370Z,26.30
2018-10-12T11:36:53.829Z,26.00
2018-10-12T11:39:21.421Z,26.20
2018-10-12T11:41:48.873Z,26.40
2018-10-12T11:44:16.509Z,26.30
2018-10-12T11:46:44.190Z,26.50
2018-10-12T11:49:11.742Z,26.80
2018-10-12T11:51:39.575Z,26.70
2018-10-12T11:54:07.050Z,26.40
2018-10-12T11:56:34.514Z,26.50
2018-10-12T11:59:02.016Z,26.80
2018-10-12T12:01:29.431Z,26.80
2018-10-12T12:03:56.893Z,26.90
2018-10-12T12:06:24.303Z,26.90
2018-10-12T12:08:51.683Z,26.80
2018-10-12T12:11:19.221Z,26.90
2018-10-12T12:13:46.783Z,27.20
2018-10-12T12:16:14.150Z,27.10
2018-10-12T12:18:41.511Z,27.20
2018-10-12T12:21:08.983Z,27.50
2018-10-12T12:23:36.556Z,27.60
2018-10-12T12:26:04.153Z,27.50
2018-10-12T12:28:32.052Z,27.60
2018-10-12T12:30:59.860Z,27.40
2018-10-12T12:33:41.759Z,27.40
2018-10-12T12:36:15.385Z,27.30
2018-10-12T12:38:49.343Z,27.40
2018-10-12T12:41:16.808Z,27.60
2018-10-12T12:43:51.489Z,27.40
2018-10-12T12:46:26.112Z,27.30
2018-10-12T12:48:58.681Z,27.50
2018-10-12T12:51:30.365Z,27.40
2018-10-12T12:54:13.396Z,27.50
2018-10-12T12:56:40.800Z,27.70
2018-10-12T13:02:21.239Z,27.60
2018-10-12T13:04:50.434Z,27.80
2018-10-12T13:07:22.463Z,27.80
2018-10-12T13:09:50.437Z,27.40
2018-10-12T13:12:21.890Z,27.20
2018-10-12T13:14:52.757Z,27.50
2018-10-12T13:17:20.319Z,26.90
2018-10-12T13:19:48.238Z,27.30
2018-10-12T13:22:15.647Z,27.60
2018-10-12T13:24:43.259Z,27.20
2018-10-12T13:27:10.819Z,27.20
2018-10-12T13:29:38.965Z,27.30
2018-10-12T13:32:06.479Z,26.80
2018-10-12T13:34:33.919Z,26.70
2018-10-12T13:37:01.488Z,27.10
2018-10-12T13:39:28.886Z,27.10
2018-10-12T13:41:56.392Z,27.20
2018-10-12T13:44:23.869Z,27.10
2018-10-12T13:46:51.344Z,27.10
2018-10-12T13:49:18.866Z,27.40
2018-10-12T13:51:46.282Z,27.50
2018-10-12T13:54:13.756Z,27.90
2018-10-12T13:56:41.460Z,27.80
2018-10-12T13:59:09.134Z,28.00
2018-10-12T14:01:36.838Z,28.50
2018-10-12T14:04:04.370Z,29.30
2018-10-12T14:06:31.854Z,30.70
2018-10-12T14:08:59.350Z,31.50
2018-10-12T14:11:26.764Z,32.30
2018-10-12T14:13:54.151Z,32.60
2018-10-12T14:16:21.565Z,33.40
2018-10-12T14:18:49.174Z,34.10
2018-10-12T14:21:16.554Z,33.20
2018-10-12T14:23:44.018Z,32.30
2018-10-12T14:26:11.491Z,31.40
2018-10-12T14:28:38.970Z,30.40
2018-10-12T14:31:06.430Z,29.40
2018-10-12T14:33:33.846Z,29.00
2018-10-12T14:36:01.550Z,28.30
2018-10-12T14:38:29.046Z,28.10
2018-10-12T14:40:56.556Z,28.10
2018-10-12T14:43:24.256Z,28.80
2018-10-12T14:45:51.964Z,29.10
2018-10-12T14:48:19.734Z,28.90
2018-10-12T14:50:47.420Z,28.30
2018-10-12T14:53:14.852Z,28.80
2018-10-12T14:55:42.355Z,29.40
2018-10-12T14:58:10.129Z,29.50
2018-10-12T15:00:37.690Z,29.00
2018-10-12T15:03:05.375Z,29.10
2018-10-12T15:05:32.920Z,28.90
2018-10-12T15:08:00.215Z,28.60
2018-10-12T15:10:27.614Z,28.10
2018-10-12T15:12:55.069Z,27.50
2018-10-12T15:15:27.318Z,27.40
2018-10-12T15:17:55.559Z,27.10
2018-10-12T15:20:23.744Z,27.00
2018-10-12T15:22:51.176Z,26.90
2018-10-12T15:25:18.711Z,26.70
2018-10-12T15:27:46.136Z,26.50
2018-10-12T15:30:14.157Z,26.20
2018-10-12T15:32:41.893Z,26.00
2018-10-12T15:35:09.613Z,25.70
2018-10-12T15:37:37.747Z,25.40
2018-10-12T15:43:01.652Z,24.90
2018-10-12T15:45:29.023Z,24.80
2018-10-12T15:47:56.459Z,24.50
2018-10-12T15:50:23.965Z,24.20
2018-10-12T15:52:51.349Z,24.00
2018-10-12T15:55:18.849Z,23.90
2018-10-12T15:57:46.239Z,23.80
2018-10-12T16:00:13.733Z,23.70
2018-10-12T16:02:41.046Z,23.50
2018-10-12T16:05:08.631Z,23.40
2018-10-12T16:07:36.030Z,23.30
2018-10-12T16:10:03.650Z,23.10
2018-10-12T16:12:31.024Z,23.00
2018-10-12T16:14:58.464Z,22.80
2018-10-12T16:17:25.992Z,22.80
2018-10-12T16:19:53.426Z,22.60
2018-10-12T16:22:21.048Z,22.50
2018-10-12T16:25:00.051Z,22.40
2018-10-12T16:27:27.508Z,22.40
2018-10-12T16:29:55.216Z,22.30
2018-10-12T16:32:22.584Z,22.10
2018-10-12T16:34:50.056Z,21.90
2018-10-12T16:37:17.753Z,21.80
2018-10-12T16:39:45.174Z,21.80
2018-10-12T16:42:12.995Z,21.60
2018-10-12T16:44:40.511Z,21.40
2018-10-12T16:47:08.108Z,21.30
2018-10-12T16:49:36.087Z,21.20
2018-10-12T16:52:03.600Z,21.20
2018-10-12T16:54:31.102Z,21.10
2018-10-12T16:56:58.638Z,21.00
2018-10-12T16:59:26.086Z,20.80
2018-10-12T17:01:53.534Z,20.70
2018-10-12T17:04:40.508Z,20.70
2018-10-12T17:07:07.970Z,20.60
2018-10-12T17:09:35.441Z,20.50
2018-10-12T17:26:28.749Z,19.90
2018-10-12T17:28:59.255Z,19.80
2018-10-12T17:31:51.190Z,19.80
2018-10-12T17:52:52.472Z,19.10
2018-10-12T17:58:52.898Z,18.90
2018-10-12T18:02:06.118Z,18.80
2018-10-12T18:04:37.879Z,18.70
2018-10-12T18:07:07.248Z,18.60
2018-10-12T18:09:34.881Z,18.50
2018-10-12T18:12:02.471Z,18.50
2018-10-12T18:14:30.125Z,18.40
2018-10-12T18:16:57.734Z,18.40
2018-10-12T18:19:25.147Z,18.30
2018-10-12T18:21:52.535Z,18.30
2018-10-12T18:24:20.243Z,18.20
2018-10-12T18:26:48.749Z,18.20
2018-10-12T18:29:17.213Z,18.20
2018-10-12T18:31:45.171Z,18.10
2018-10-12T18:34:12.590Z,18.10
2018-10-12T18:36:39.948Z,18.10
2018-10-12T18:39:09.141Z,18.10
2018-10-12T18:41:36.580Z,18.10
2018-10-12T18:44:04.983Z,18.00
2018-10-12T18:46:34.069Z,18.00
2018-10-12T18:49:02.924Z,18.00
2018-10-12T18:51:31.266Z,18.00
2018-10-12T18:53:58.944Z,18.10
2018-10-12T18:56:26.369Z,18.10
2018-10-12T18:58:53.881Z,18.10
2018-10-12T19:01:21.317Z,18.10
2018-10-12T19:03:48.830Z,18.20
2018-10-12T19:06:17.306Z,18.20
2018-10-12T19:08:44.781Z,18.10
2018-10-12T19:11:12.260Z,18.20
2018-10-12T19:13:39.806Z,18.20
2018-10-12T19:16:07.185Z,18.10
2018-10-12T19:18:34.781Z,18.10
2018-10-12T19:21:02.325Z,18.10
2018-10-12T19:23:34.488Z,18.10
2018-10-12T19:26:03.312Z,18.00
2018-10-12T19:28:31.550Z,18.00
2018-10-12T19:30:58.977Z,18.00
2018-10-12T19:33:26.376Z,18.10
2018-10-12T19:35:53.818Z,18.00
2018-10-12T19:38:21.287Z,18.00
2018-10-12T19:40:48.642Z,17.90
2018-10-12T19:43:16.143Z,17.80
2018-10-12T19:45:43.642Z,17.80
2018-10-12T19:48:11.173Z,17.70
2018-10-12T19:50:38.567Z,17.70
2018-10-12T19:53:06.269Z,17.50
2018-10-12T19:55:33.562Z,17.40
2018-10-12T19:58:01.118Z,17.40
2018-10-12T20:00:29.396Z,17.40
2018-10-12T20:03:02.895Z,17.30
2018-10-12T20:05:35.215Z,17.30
2018-10-12T20:08:02.630Z,17.20
2018-10-12T20:10:30.169Z,17.20
2018-10-12T20:12:57.690Z,17.10
2018-10-12T20:15:25.118Z,17.10
2018-10-12T20:17:52.596Z,17.00
2018-10-12T20:20:20.643Z,17.10
2018-10-12T20:22:48.170Z,17.00
2018-10-12T20:25:15.641Z,17.00
2018-10-12T20:27:43.158Z,17.00
2018-10-12T20:30:10.566Z,17.00
2018-10-12T20:32:38.006Z,17.00
2018-10-12T20:35:05.688Z,17.00
2018-10-12T20:37:33.197Z,16.90
2018-10-12T20:40:00.642Z,16.90
2018-10-12T20:42:28.074Z,16.80
2018-10-12T20:44:55.645Z,16.90
2018-10-12T20:47:23.016Z,16.80
2018-10-12T20:49:50.431Z,16.70
2018-10-12T20:52:17.895Z,16.70
2018-10-12T20:54:45.268Z,16.60
2018-10-12T20:57:12.889Z,16.50
2018-10-12T20:59:40.215Z,16.40
2018-10-12T21:02:07.675Z,16.30
2018-10-12T21:04:35.433Z,16.30
2018-10-12T21:07:04.620Z,16.20
2018-10-12T21:09:32.073Z,16.10
2018-10-12T21:11:59.482Z,16.00
2018-10-12T21:14:26.982Z,15.90
2018-10-12T21:16:54.379Z,15.80
2018-10-12T21:19:21.791Z,15.70
2018-10-12T21:21:49.171Z,15.60
2018-10-12T21:24:16.539Z,15.40
2018-10-12T21:26:44.039Z,15.40
2018-10-12T21:29:11.557Z,15.30
2018-10-12T21:31:38.950Z,15.30
2018-10-12T21:34:06.660Z,15.30
2018-10-12T21:36:34.014Z,15.30
2018-10-12T21:39:01.468Z,15.30
2018-10-12T21:41:28.886Z,15.30
2018-10-12T21:43:56.418Z,15.30
2018-10-12T21:46:23.864Z,15.30
2018-10-12T21:48:51.410Z,15.30
2018-10-12T21:51:18.779Z,15.20
2018-10-12T21:53:46.177Z,15.20
2018-10-12T21:56:13.643Z,15.20
2018-10-12T21:58:41.138Z,15.10
2018-10-12T22:01:08.600Z,15.00
2018-10-12T22:03:36.813Z,15.00
2018-10-12T22:06:04.615Z,14.90
2018-10-12T22:08:37.721Z,14.70
2018-10-12T22:11:05.874Z,14.70
2018-10-12T22:13:33.666Z,14.70
2018-10-12T22:16:01.237Z,14.70
2018-10-12T22:18:28.621Z,14.80
2018-10-12T22:20:56.042Z,14.70
2018-10-12T22:23:23.768Z,14.70
2018-10-12T22:25:51.566Z,14.70
2018-10-12T22:28:19.467Z,14.50
2018-10-12T22:30:48.747Z,14.40
2018-10-12T22:33:16.297Z,14.30
2018-10-12T22:35:43.738Z,14.20
2018-10-12T22:38:11.259Z,14.20
2018-10-12T22:40:38.710Z,14.00
2018-10-12T22:43:06.318Z,14.00
2018-10-12T22:45:33.812Z,13.90
2018-10-12T22:48:01.150Z,13.80
2018-10-12T22:50:28.512Z,13.70
2018-10-12T22:52:56.042Z,13.70
2018-10-12T22:55:23.458Z,13.70
2018-10-12T22:57:55.350Z,13.70
2018-10-12T23:00:23.086Z,13.60
2018-10-12T23:02:50.642Z,13.50
2018-10-12T23:05:18.132Z,13.50
2018-10-12T23:07:45.634Z,13.40
2018-10-12T23:10:13.047Z,13.40
2018-10-12T23:12:40.458Z,13.30
2018-10-12T23:15:07.881Z,12.80
2018-10-12T23:17:35.296Z,12.80
2018-10-12T23:20:02.793Z,12.70
2018-10-12T23:22:30.203Z,12.80
2018-10-12T23:24:58.951Z,12.90
2018-10-12T23:27:26.677Z,13.00
2018-10-12T23:29:54.893Z,12.90
2018-10-12T23:32:23.107Z,12.80
2018-10-12T23:34:50.431Z,12.80
2018-10-12T23:37:17.785Z,12.70
2018-10-12T23:39:45.185Z,12.70
2018-10-12T23:42:12.709Z,12.70
2018-10-12T23:44:40.105Z,12.80
2018-10-12T23:47:07.540Z,12.90
2018-10-12T23:49:35.029Z,12.80
2018-10-12T23:52:02.539Z,12.80
2018-10-12T23:54:29.917Z,12.70
2018-10-12T23:56:57.381Z,12.70
2018-10-12T23:59:24.789Z,12.70
